createdAt,value
2024-03-09T00:01:50.835Z,34.15
2024-03-09T00:04:17.673Z,32.79
2024-03-09T00:06:44.436Z,34.39
2024-03-09T00:09:11.162Z,34.98
2024-03-09T00:11:38.043Z,34.43
2024-03-09T00:14:04.888Z,34.74
2024-03-09T00:16:33.049Z,34.52
2024-03-09T00:18:59.767Z,34.29
2024-03-09T00:21:26.483Z,34.55
2024-03-09T00:23:53.231Z,33.67
2024-03-09T00:26:19.942Z,34.42
2024-03-09T00:28:46.761Z,33.74
2024-03-09T00:31:13.766Z,36.09
2024-03-09T00:33:42.095Z,38.81
2024-03-09T00:36:10.175Z,40.44
2024-03-09T00:38:38.993Z,35.74
2024-03-09T00:41:05.934Z,33.60
2024-03-09T00:43:32.866Z,32.07
2024-03-09T00:45:59.587Z,31.76
2024-03-09T00:48:26.335Z,32.49
2024-03-09T00:50:54.436Z,33.01
2024-03-09T00:53:21.265Z,34.35
2024-03-09T00:55:47.999Z,33.66
2024-03-09T00:58:14.875Z,33.80
2024-03-09T01:00:41.616Z,34.03
2024-03-09T01:03:08.381Z,34.86
2024-03-09T01:05:35.179Z,34.47
2024-03-09T01:08:03.586Z,34.17
2024-03-09T01:10:30.347Z,34.50
2024-03-09T01:12:57.045Z,33.59
2024-03-09T01:15:23.867Z,34.56
2024-03-09T01:17:50.786Z,35.32
2024-03-09T01:20:17.630Z,34.56
2024-03-09T01:22:44.600Z,34.54
2024-03-09T01:25:13.006Z,34.24
2024-03-09T01:27:39.772Z,34.91
2024-03-09T01:30:07.703Z,34.07
2024-03-09T01:32:34.522Z,34.22
2024-03-09T01:35:01.404Z,33.07
2024-03-09T01:37:28.194Z,34.33
2024-03-09T01:39:55.152Z,33.71
2024-03-09T01:42:23.329Z,32.99
2024-03-09T01:44:50.438Z,32.95
2024-03-09T01:47:17.351Z,32.35
2024-03-09T01:49:44.097Z,32.15
2024-03-09T01:52:10.919Z,33.06
2024-03-09T01:54:40.516Z,32.40
2024-03-09T01:57:08.641Z,31.98
2024-03-09T01:59:36.733Z,32.24
2024-03-09T02:02:03.687Z,31.34
2024-03-09T02:04:30.499Z,31.25
2024-03-09T02:06:57.293Z,30.69
2024-03-09T02:09:23.997Z,31.83
2024-03-09T02:11:50.748Z,31.64
2024-03-09T02:14:17.576Z,31.66
2024-03-09T02:16:45.666Z,33.82
2024-03-09T02:19:12.361Z,34.05
2024-03-09T02:21:39.064Z,33.86
2024-03-09T02:24:07.122Z,35.38
2024-03-09T02:26:35.311Z,35.44
2024-03-09T02:29:02.071Z,34.41
2024-03-09T02:31:28.889Z,34.82
2024-03-09T02:33:55.670Z,34.26
2024-03-09T02:36:25.505Z,33.97
2024-03-09T02:38:52.244Z,35.46
2024-03-09T02:41:19.072Z,34.89
2024-03-09T02:43:47.210Z,34.18
2024-03-09T02:46:14.027Z,33.86
2024-03-09T02:48:42.920Z,34.46
2024-03-09T02:51:09.651Z,32.51
2024-03-09T02:53:36.361Z,32.30
2024-03-09T02:56:03.438Z,32.54
2024-03-09T02:58:30.313Z,32.72
2024-03-09T03:00:58.452Z,31.33
2024-03-09T03:03:25.231Z,30.99
2024-03-09T03:05:51.937Z,31.87
2024-03-09T03:08:18.634Z,31.44
2024-03-09T03:10:45.416Z,30.33
2024-03-09T03:13:12.954Z,31.71
2024-03-09T03:15:39.696Z,32.22
2024-03-09T03:18:08.154Z,30.54
2024-03-09T03:20:35.486Z,31.19
2024-03-09T03:23:04.002Z,30.60
2024-03-09T03:25:31.018Z,31.19
2024-03-09T03:27:57.791Z,31.10
2024-03-09T03:30:24.650Z,31.23
2024-03-09T03:32:51.397Z,32.29
2024-03-09T03:35:19.565Z,32.17
2024-03-09T03:37:46.292Z,33.20
2024-03-09T03:40:13.447Z,31.44
2024-03-09T03:42:40.130Z,31.44
2024-03-09T03:45:07.729Z,30.87
2024-03-09T03:47:34.486Z,31.10
2024-03-09T03:50:01.886Z,30.33
2024-03-09T03:52:30.782Z,31.36
2024-03-09T03:54:58.221Z,31.05
2024-03-09T03:57:25.775Z,31.73
2024-03-09T03:59:53.066Z,31.98
2024-03-09T04:02:20.258Z,32.02
2024-03-09T04:04:47.544Z,32.40
2024-03-09T04:07:15.027Z,33.78
2024-03-09T04:09:43.754Z,33.52
2024-03-09T04:12:11.098Z,32.98
2024-03-09T04:14:38.390Z,32.72
2024-03-09T04:17:05.901Z,33.45
2024-03-09T04:19:36.258Z,33.17
2024-03-09T04:22:03.685Z,32.51
2024-03-09T04:24:31.156Z,33.88
2024-03-09T04:27:00.749Z,31.80
2024-03-09T04:29:30.776Z,32.00
2024-03-09T04:31:58.116Z,31.89
2024-03-09T04:34:25.438Z,31.75
2024-03-09T04:36:52.788Z,31.97
2024-03-09T04:39:23.077Z,31.62
2024-03-09T04:41:50.264Z,31.48
2024-03-09T04:44:25.088Z,30.39
2024-03-09T04:46:56.749Z,30.97
2024-03-09T04:49:23.467Z,30.32
2024-03-09T04:51:50.220Z,30.55
2024-03-09T04:54:17.030Z,30.17
2024-03-09T04:56:43.842Z,30.45
2024-03-09T04:59:10.665Z,31.32
2024-03-09T05:01:38.948Z,32.65
2024-03-09T05:04:05.690Z,32.58
2024-03-09T05:06:32.415Z,32.48
2024-03-09T05:08:59.243Z,33.19
2024-03-09T05:11:26.044Z,33.59
2024-03-09T05:13:52.904Z,34.12
2024-03-09T05:16:19.633Z,33.14
2024-03-09T05:18:47.788Z,33.43
2024-03-09T05:21:14.598Z,33.71
2024-03-09T05:23:41.361Z,33.51
2024-03-09T05:26:08.185Z,34.22
2024-03-09T05:28:34.948Z,33.71
2024-03-09T05:31:01.726Z,33.93
2024-03-09T05:33:28.454Z,32.47
2024-03-09T05:35:56.540Z,33.14
2024-03-09T05:38:23.266Z,33.42
2024-03-09T05:40:50.040Z,34.34
2024-03-09T05:43:16.842Z,34.35
2024-03-09T05:45:43.617Z,34.63
2024-03-09T05:48:10.849Z,34.27
2024-03-09T05:50:37.621Z,34.60
2024-03-09T05:53:06.465Z,35.35
2024-03-09T05:55:33.645Z,34.68
2024-03-09T05:58:00.405Z,35.55
2024-03-09T06:00:27.664Z,35.92
2024-03-09T06:02:54.381Z,35.61
2024-03-09T06:05:21.216Z,36.86
2024-03-09T06:07:47.975Z,35.62
2024-03-09T06:10:16.730Z,36.42
2024-03-09T06:12:43.524Z,36.23
2024-03-09T06:15:10.713Z,36.40
2024-03-09T06:17:37.561Z,36.49
2024-03-09T06:20:05.079Z,35.96
2024-03-09T06:22:31.899Z,36.25
2024-03-09T06:24:58.651Z,37.05
2024-03-09T06:27:26.754Z,37.42
2024-03-09T06:29:53.487Z,37.43
2024-03-09T06:32:20.248Z,36.40
2024-03-09T06:34:47.163Z,36.95
2024-03-09T06:37:14.075Z,37.97
2024-03-09T06:39:40.928Z,37.75
2024-03-09T06:42:08.002Z,37.90
2024-03-09T06:44:36.068Z,37.32
2024-03-09T06:47:02.902Z,37.29
2024-03-09T06:49:29.737Z,37.15
2024-03-09T06:51:56.491Z,37.15
2024-03-09T06:54:23.193Z,37.65
2024-03-09T06:56:49.947Z,38.11
2024-03-09T06:59:16.698Z,38.37
2024-03-09T07:01:44.849Z,38.78
2024-03-09T07:04:11.569Z,37.91
2024-03-09T07:06:38.341Z,38.93
2024-03-09T07:09:05.069Z,38.90
2024-03-09T07:11:31.810Z,38.66
2024-03-09T07:13:58.664Z,37.70
2024-03-09T07:16:25.384Z,36.74
2024-03-09T07:18:53.517Z,36.76
2024-03-09T07:21:20.307Z,37.40
2024-03-09T07:23:47.009Z,37.18
2024-03-09T07:26:13.807Z,36.75
2024-03-09T07:28:40.706Z,37.38
2024-03-09T07:31:07.506Z,37.07
2024-03-09T07:33:34.349Z,37.87
2024-03-09T07:36:02.720Z,37.98
2024-03-09T07:38:29.562Z,40.40
2024-03-09T07:40:56.395Z,40.29
2024-03-09T07:43:23.144Z,40.56
2024-03-09T07:45:50.100Z,42.30
2024-03-09T07:48:16.966Z,41.12
2024-03-09T07:50:44.009Z,39.96
2024-03-09T07:53:12.316Z,39.41
2024-03-09T07:55:39.207Z,36.73
2024-03-09T07:58:14.408Z,36.66
2024-03-09T08:00:49.004Z,35.75
2024-03-09T08:03:15.949Z,35.83
2024-03-09T08:05:43.214Z,35.98
2024-03-09T08:08:10.429Z,36.21
2024-03-09T08:10:38.955Z,35.94
2024-03-09T08:13:05.805Z,35.62
2024-03-09T08:15:32.573Z,34.21
2024-03-09T08:17:59.483Z,34.02
2024-03-09T08:20:26.287Z,34.05
2024-03-09T08:22:53.077Z,33.14
2024-03-09T08:25:19.978Z,33.46
2024-03-09T08:27:48.448Z,35.39
2024-03-09T08:30:16.154Z,34.95
2024-03-09T08:32:43.698Z,38.61
2024-03-09T08:35:11.037Z,39.68
2024-03-09T08:37:38.240Z,39.46
2024-03-09T08:40:07.129Z,38.64
2024-03-09T08:42:34.088Z,39.03
2024-03-09T08:45:03.377Z,38.74
2024-03-09T08:47:30.310Z,38.52
2024-03-09T08:49:57.209Z,40.73
2024-03-09T08:52:24.024Z,40.92
2024-03-09T08:54:50.848Z,44.28
2024-03-09T08:57:17.594Z,45.12
2024-03-09T08:59:44.488Z,45.51
2024-03-09T09:02:12.618Z,44.51
2024-03-09T09:04:39.397Z,43.85
2024-03-09T09:07:06.143Z,42.27
2024-03-09T09:09:32.956Z,40.38
2024-03-09T09:11:59.868Z,39.77
2024-03-09T09:14:26.906Z,40.52
2024-03-09T09:16:53.646Z,41.27
2024-03-09T09:19:21.747Z,41.90
2024-03-09T09:21:48.717Z,45.73
2024-03-09T09:24:15.444Z,46.12
2024-03-09T09:26:42.175Z,47.85
2024-03-09T09:29:09.021Z,47.88
2024-03-09T09:31:36.117Z,46.87
2024-03-09T09:34:02.948Z,46.16
2024-03-09T09:36:31.088Z,44.30
2024-03-09T09:38:57.862Z,44.48
2024-03-09T09:41:24.696Z,43.86
2024-03-09T09:43:56.262Z,44.60
2024-03-09T09:46:23.077Z,45.26
2024-03-09T09:48:49.794Z,44.15
2024-03-09T09:51:16.668Z,43.54
2024-03-09T09:53:44.758Z,42.59
2024-03-09T09:56:11.527Z,42.46
2024-03-09T09:58:38.360Z,41.61
2024-03-09T10:01:05.268Z,41.05
2024-03-09T10:03:32.027Z,38.74
2024-03-09T10:05:58.778Z,39.51
2024-03-09T10:08:25.481Z,39.85
2024-03-09T10:10:53.709Z,39.44
2024-03-09T10:13:20.556Z,39.03
2024-03-09T10:15:47.982Z,38.18
2024-03-09T10:18:15.110Z,38.59
2024-03-09T10:20:41.878Z,37.81
2024-03-09T10:23:10.483Z,38.05
2024-03-09T10:25:37.859Z,37.68
2024-03-09T10:28:06.775Z,37.57
2024-03-09T10:30:33.644Z,37.98
2024-03-09T10:33:00.401Z,36.81
2024-03-09T10:35:27.336Z,37.65
2024-03-09T10:37:54.658Z,37.95
2024-03-09T10:40:21.400Z,38.36
2024-03-09T10:42:49.098Z,38.43
2024-03-09T10:45:17.923Z,37.26
2024-03-09T10:47:47.949Z,36.97
2024-03-09T10:50:15.291Z,36.83
2024-03-09T10:52:42.090Z,36.17
2024-03-09T10:55:10.561Z,34.99
2024-03-09T10:57:37.289Z,35.85
2024-03-09T11:00:04.624Z,36.24
2024-03-09T11:02:32.819Z,35.41
2024-03-09T11:04:59.703Z,35.64
2024-03-09T11:07:26.541Z,35.35
2024-03-09T11:09:53.332Z,34.04
2024-03-09T11:12:20.386Z,35.57
2024-03-09T11:14:50.491Z,34.25
2024-03-09T11:17:20.561Z,33.22
2024-03-09T11:19:50.946Z,33.03
2024-03-09T11:22:39.573Z,32.76
2024-03-09T11:25:08.146Z,34.07
2024-03-09T11:27:34.813Z,32.93
2024-03-09T11:30:01.586Z,32.14
2024-03-09T11:32:28.316Z,32.80
2024-03-09T11:35:30.283Z,31.53
2024-03-09T11:37:57.035Z,32.49
2024-03-09T11:40:23.976Z,31.74
2024-03-09T11:42:59.266Z,32.67
2024-03-09T11:45:27.204Z,34.22
2024-03-09T11:47:54.132Z,35.48
2024-03-09T11:50:21.001Z,34.43
2024-03-09T11:52:49.164Z,35.59
2024-03-09T11:55:16.177Z,35.03
2024-03-09T11:57:43.793Z,33.75
2024-03-09T12:00:11.182Z,33.97
2024-03-09T12:02:38.320Z,33.81
2024-03-09T12:05:09.819Z,34.87
2024-03-09T12:07:36.579Z,35.41
2024-03-09T12:10:05.929Z,34.99
2024-03-09T12:12:35.195Z,34.30
2024-03-09T12:15:01.984Z,34.19
2024-03-09T12:17:28.763Z,34.40
2024-03-09T12:19:55.501Z,34.54
2024-03-09T12:22:22.257Z,33.74
2024-03-09T12:24:49.018Z,32.50
2024-03-09T12:27:17.082Z,34.94
2024-03-09T12:29:43.839Z,34.60
2024-03-09T12:32:10.674Z,36.16
2024-03-09T12:34:38.466Z,35.34
2024-03-09T12:37:05.483Z,35.07
2024-03-09T12:39:32.326Z,35.13
2024-03-09T12:42:01.781Z,35.06
2024-03-09T12:44:35.069Z,34.42
2024-03-09T12:47:01.915Z,34.31
2024-03-09T12:49:28.675Z,34.91
2024-03-09T12:51:55.372Z,34.72
2024-03-09T12:54:22.197Z,35.34
2024-03-09T12:56:50.142Z,34.26
2024-03-09T12:59:18.180Z,34.36
2024-03-09T13:01:46.499Z,34.81
2024-03-09T13:04:13.964Z,35.44
2024-03-09T13:06:41.268Z,33.50
2024-03-09T13:09:08.543Z,34.73
2024-03-09T13:11:35.367Z,34.62
2024-03-09T13:14:02.224Z,33.68
2024-03-09T13:16:29.054Z,33.44
2024-03-09T13:18:57.145Z,33.63
2024-03-09T13:21:23.931Z,33.11
2024-03-09T13:23:50.663Z,32.99
2024-03-09T13:26:17.502Z,33.21
2024-03-09T13:28:44.283Z,34.00
2024-03-09T13:31:11.159Z,33.18
2024-03-09T13:33:37.959Z,33.09
2024-03-09T13:36:06.728Z,33.69
2024-03-09T13:38:33.452Z,32.62
2024-03-09T13:41:00.232Z,32.84
2024-03-09T13:43:26.992Z,33.71
2024-03-09T13:45:53.743Z,34.11
2024-03-09T13:48:20.490Z,34.72
2024-03-09T13:50:47.217Z,33.44
2024-03-09T13:53:15.412Z,34.19
2024-03-09T13:55:42.239Z,34.88
2024-03-09T13:58:09.043Z,34.14
2024-03-09T14:00:35.762Z,33.66
2024-03-09T14:03:02.634Z,33.40
2024-03-09T14:05:29.492Z,33.24
2024-03-09T14:07:56.789Z,32.69
2024-03-09T14:10:28.228Z,32.94
2024-03-09T14:12:55.232Z,32.10
2024-03-09T14:15:22.277Z,33.21
2024-03-09T14:17:49.860Z,32.29
2024-03-09T14:20:16.727Z,33.99
2024-03-09T14:22:43.588Z,33.89
2024-03-09T14:25:10.353Z,34.59
2024-03-09T14:27:38.428Z,34.43
2024-03-09T14:30:07.826Z,35.00
2024-03-09T14:32:34.682Z,34.12
2024-03-09T14:35:01.578Z,35.41
2024-03-09T14:37:30.092Z,36.29
2024-03-09T14:39:56.810Z,38.59
2024-03-09T14:42:23.618Z,38.13
2024-03-09T14:44:51.713Z,38.56
2024-03-09T14:47:18.569Z,36.31
2024-03-09T14:49:45.312Z,37.29
2024-03-09T14:52:12.149Z,39.27
2024-03-09T14:54:38.926Z,37.76
2024-03-09T14:57:05.659Z,36.11
2024-03-09T14:59:32.378Z,36.23
2024-03-09T15:02:00.421Z,35.52
2024-03-09T15:04:27.225Z,34.58
2024-03-09T15:06:53.954Z,34.56
2024-03-09T15:09:20.703Z,34.13
2024-03-09T15:11:47.823Z,33.34
2024-03-09T15:14:14.753Z,34.49
2024-03-09T15:16:41.594Z,34.87
2024-03-09T15:19:09.789Z,34.39
2024-03-09T15:21:36.535Z,35.14
2024-03-09T15:24:03.705Z,35.28
2024-03-09T15:26:31.273Z,33.56
2024-03-09T15:28:58.974Z,35.04
2024-03-09T15:31:26.225Z,34.31
2024-03-09T15:33:52.966Z,34.34
2024-03-09T15:36:21.064Z,34.60
2024-03-09T15:38:47.867Z,34.87
2024-03-09T15:41:15.351Z,33.45
2024-03-09T15:43:42.483Z,34.35
2024-03-09T15:46:09.327Z,34.06
2024-03-09T15:48:36.106Z,33.37
2024-03-09T15:51:03.177Z,33.11
2024-03-09T15:53:31.996Z,33.52
2024-03-09T15:55:58.771Z,33.43
2024-03-09T15:58:25.588Z,32.53
2024-03-09T16:00:52.459Z,33.49
2024-03-09T16:03:19.162Z,33.37
2024-03-09T16:05:45.956Z,32.90
2024-03-09T16:08:14.837Z,32.79
2024-03-09T16:10:44.066Z,33.19
2024-03-09T16:13:10.948Z,32.79
2024-03-09T16:15:37.676Z,31.99
2024-03-09T16:18:05.038Z,28.97
2024-03-09T16:20:32.487Z,28.51
2024-03-09T16:22:59.496Z,30.94
2024-03-09T16:25:27.131Z,29.49
2024-03-09T16:27:55.969Z,26.69
2024-03-09T16:30:22.705Z,24.64
2024-03-09T16:32:49.501Z,25.02
2024-03-09T16:35:16.545Z,24.45
2024-03-09T16:37:43.386Z,24.81
2024-03-09T16:40:10.921Z,24.16
2024-03-09T16:42:37.644Z,22.46
2024-03-09T16:45:06.869Z,20.68
2024-03-09T16:47:33.652Z,20.03
2024-03-09T16:50:00.506Z,19.80
2024-03-09T16:52:27.280Z,20.46
2024-03-09T16:54:54.013Z,20.75
2024-03-09T16:57:23.116Z,21.71
2024-03-09T16:59:50.462Z,20.75
2024-03-09T17:02:18.591Z,20.86
2024-03-09T17:04:45.400Z,22.75
2024-03-09T17:07:12.201Z,21.13
2024-03-09T17:09:38.964Z,22.02
2024-03-09T17:12:06.326Z,21.85
2024-03-09T17:14:33.257Z,20.51
2024-03-09T17:17:00.029Z,21.27
2024-03-09T17:19:28.317Z,21.91
2024-03-09T17:21:55.019Z,21.07
2024-03-09T17:24:21.782Z,21.37
2024-03-09T17:26:48.575Z,21.22
2024-03-09T17:29:15.408Z,19.71
2024-03-09T17:31:42.269Z,19.85
2024-03-09T17:34:09.082Z,20.79
2024-03-09T17:36:37.167Z,20.67
2024-03-09T17:39:04.115Z,23.34
2024-03-09T17:41:30.955Z,22.65
2024-03-09T17:43:57.859Z,22.09
2024-03-09T17:46:24.691Z,22.64
2024-03-09T17:48:51.543Z,21.76
2024-03-09T17:51:18.648Z,20.65
2024-03-09T17:53:46.884Z,19.22
2024-03-09T17:56:14.624Z,19.48
2024-03-09T17:58:42.991Z,20.26
2024-03-09T18:01:09.769Z,20.15
2024-03-09T18:03:36.504Z,20.87
2024-03-09T18:06:03.628Z,21.61
2024-03-09T18:08:30.434Z,20.66
2024-03-09T18:10:58.577Z,20.31
2024-03-09T18:13:25.382Z,21.43
2024-03-09T18:15:52.254Z,21.09
2024-03-09T18:18:19.072Z,20.68
2024-03-09T18:20:45.889Z,18.86
2024-03-09T18:23:13.416Z,20.46
2024-03-09T18:25:40.743Z,21.71
2024-03-09T18:28:09.577Z,22.23
2024-03-09T18:30:36.613Z,23.25
2024-03-09T18:33:03.991Z,23.79
2024-03-09T18:35:30.790Z,24.68
2024-03-09T18:37:57.594Z,24.49
2024-03-09T18:40:24.315Z,25.01
2024-03-09T18:42:51.025Z,24.25
2024-03-09T18:45:19.124Z,25.14
2024-03-09T18:47:45.869Z,23.81
2024-03-09T18:50:12.945Z,23.33
2024-03-09T18:52:39.776Z,22.64
2024-03-09T18:55:07.734Z,22.29
2024-03-09T18:57:34.585Z,22.82
2024-03-09T19:00:02.583Z,21.98
2024-03-09T19:02:31.753Z,23.37
2024-03-09T19:04:58.731Z,22.12
2024-03-09T19:07:25.610Z,22.46
2024-03-09T19:09:52.316Z,24.75
2024-03-09T19:12:19.093Z,27.75
2024-03-09T19:14:45.874Z,27.21
2024-03-09T19:17:12.747Z,25.79
2024-03-09T19:19:40.882Z,27.03
2024-03-09T19:22:07.621Z,28.66
2024-03-09T19:24:34.337Z,29.36
2024-03-09T19:27:01.089Z,32.12
2024-03-09T19:29:27.921Z,33.11
2024-03-09T19:31:54.707Z,35.27
2024-03-09T19:34:21.600Z,35.43
2024-03-09T19:36:49.694Z,28.11
2024-03-09T19:39:16.533Z,24.73
2024-03-09T19:41:43.367Z,23.52
2024-03-09T19:44:10.245Z,24.07
2024-03-09T19:46:37.063Z,25.02
2024-03-09T19:49:03.836Z,24.86
2024-03-09T19:51:30.869Z,24.83
2024-03-09T19:53:59.280Z,24.41
2024-03-09T19:56:26.168Z,25.99
2024-03-09T19:58:52.917Z,24.27
2024-03-09T20:01:19.633Z,25.32
2024-03-09T20:03:46.425Z,26.17
2024-03-09T20:06:13.202Z,25.07
2024-03-09T20:08:40.004Z,25.29
2024-03-09T20:11:08.183Z,25.64
2024-03-09T20:13:35.047Z,26.01
2024-03-09T20:16:01.809Z,25.39
2024-03-09T20:18:28.690Z,24.30
2024-03-09T20:20:55.595Z,24.53
2024-03-09T20:23:22.368Z,24.75
2024-03-09T20:25:49.313Z,24.39
2024-03-09T20:28:17.406Z,23.26
2024-03-09T20:30:44.135Z,24.17
2024-03-09T20:33:10.928Z,24.00
2024-03-09T20:35:37.798Z,24.18
2024-03-09T20:38:06.687Z,24.14
2024-03-09T20:40:35.520Z,24.83
2024-03-09T20:43:02.332Z,24.73
2024-03-09T20:45:30.457Z,23.96
2024-03-09T20:47:57.450Z,23.27
2024-03-09T20:50:24.518Z,24.11
2024-03-09T20:52:51.393Z,23.63
2024-03-09T20:55:18.363Z,24.07
2024-03-09T20:57:45.115Z,24.35
2024-03-09T21:00:12.844Z,25.69
2024-03-09T21:02:41.000Z,26.61
2024-03-09T21:05:08.640Z,26.16
2024-03-09T21:07:35.486Z,28.75
2024-03-09T21:10:02.230Z,30.54
2024-03-09T21:12:29.040Z,29.75
2024-03-09T21:14:55.773Z,28.52
2024-03-09T21:17:22.509Z,26.43
2024-03-09T21:19:50.717Z,25.48
2024-03-09T21:22:17.488Z,26.96
2024-03-09T21:24:44.270Z,27.24
2024-03-09T21:27:11.041Z,25.02
2024-03-09T21:29:37.921Z,27.38
2024-03-09T21:32:05.387Z,27.96
2024-03-09T21:34:32.175Z,28.41
2024-03-09T21:37:00.277Z,29.29
2024-03-09T21:39:30.196Z,30.77
2024-03-09T21:41:56.995Z,30.38
2024-03-09T21:44:23.748Z,29.90
2024-03-09T21:46:50.552Z,30.07
2024-03-09T21:49:17.264Z,30.61
2024-03-09T21:51:44.146Z,30.47
2024-03-09T21:54:12.436Z,32.65
2024-03-09T21:56:39.178Z,33.74
2024-03-09T21:59:05.971Z,36.84
2024-03-09T22:01:32.918Z,40.72
2024-03-09T22:03:59.843Z,40.14
2024-03-09T22:06:26.637Z,42.40
2024-03-09T22:08:53.606Z,41.10
2024-03-09T22:11:21.946Z,39.98
2024-03-09T22:13:48.766Z,37.40
2024-03-09T22:16:15.568Z,38.11
2024-03-09T22:18:42.362Z,37.42
2024-03-09T22:21:10.161Z,36.84
2024-03-09T22:23:36.958Z,37.08
2024-03-09T22:26:04.068Z,35.52
2024-03-09T22:28:32.170Z,34.32
2024-03-09T22:30:58.918Z,34.80
2024-03-09T22:33:25.600Z,34.63
2024-03-09T22:35:52.448Z,33.98
2024-03-09T22:38:19.244Z,34.41
2024-03-09T22:40:46.034Z,33.97
2024-03-09T22:43:12.939Z,31.95
2024-03-09T22:45:41.337Z,30.96
2024-03-09T22:48:08.352Z,32.35
2024-03-09T22:50:35.204Z,32.73
2024-03-09T22:53:01.980Z,33.79
2024-03-09T22:55:28.700Z,32.64
2024-03-09T22:57:55.414Z,30.44
2024-03-09T23:00:22.133Z,29.93
2024-03-09T23:02:50.222Z,30.37
2024-03-09T23:05:17.284Z,30.86
2024-03-09T23:07:44.063Z,31.33
2024-03-09T23:10:10.831Z,30.54
2024-03-09T23:12:37.542Z,29.85
2024-03-09T23:15:04.766Z,29.73
2024-03-09T23:17:31.815Z,29.81
2024-03-09T23:20:00.109Z,29.63
2024-03-09T23:22:26.843Z,28.14
2024-03-09T23:24:53.637Z,28.34
2024-03-09T23:27:20.420Z,28.03
2024-03-09T23:29:47.165Z,28.49
2024-03-09T23:32:13.946Z,27.91
2024-03-09T23:34:41.291Z,27.05
2024-03-09T23:37:09.436Z,28.76
2024-03-09T23:39:36.136Z,27.64
2024-03-09T23:42:02.898Z,28.20
2024-03-09T23:44:29.907Z,28.39
2024-03-09T23:46:56.740Z,28.22
2024-03-09T23:49:23.478Z,29.75
2024-03-09T23:51:50.193Z,29.60
2024-03-09T23:54:18.258Z,33.55
2024-03-09T23:56:44.969Z,33.31
2024-03-09T23:59:11.784Z,33.81
